Time;durP1;ratioP1;P1;durP2;ratioP2;P2;SDS_P1;SDS_P2;PMS_P1;PMS_P2;Temp;Humidity;BMP_temperature;BMP_pressure;BME280_temperature;BME280_humidity;BME280_pressure;Samples;Min_cycle;Max_cycle;Signal;HPM_P1;HPM_P2
2022/09/04 00:02:41;;;;;;;23.25;13.10;;;;;;;13.55;100.00;96565.06;5035567;28;20052;-74
2022/09/04 00:05:39;;;;;;;25.92;13.18;;;;;;;13.75;100.00;96568.84;5036918;28;20490;-73
2022/09/04 00:08:16;;;;;;;28.60;14.45;;;;;;;13.56;100.00;96565.84;5031928;28;20033;-73
2022/09/04 00:11:00;;;;;;;25.33;13.85;;;;;;;13.45;100.00;96570.38;5035062;28;20649;-73
2022/09/04 00:13:32;;;;;;;22.60;13.60;;;;;;;13.33;100.00;96578.69;5034192;28;20055;-73
2022/09/04 00:16:20;;;;;;;27.52;14.02;;;;;;;13.25;100.00;96584.56;5038339;28;20072;-73
2022/09/04 00:19:02;;;;;;;25.55;13.20;;;;;;;13.12;100.00;96590.38;5008543;28;20141;-73
2022/09/04 00:21:37;;;;;;;26.58;14.63;;;;;;;13.00;100.00;96601.34;5032535;28;20094;-73
2022/09/04 00:24:43;;;;;;;25.63;15.25;;;;;;;12.87;100.00;96601.78;5036187;28;20128;-73
2022/09/04 00:27:15;;;;;;;25.48;15.50;;;;;;;12.89;100.00;96598.84;5034296;28;20175;-73
2022/09/04 00:30:00;;;;;;;26.02;14.70;;;;;;;12.89;100.00;96599.63;5035419;28;20038;-74
2022/09/04 00:32:33;;;;;;;23.83;14.10;;;;;;;12.93;100.00;96608.00;5038192;28;20551;-73
2022/09/04 00:35:30;;;;;;;24.80;13.75;;;;;;;12.95;100.00;96600.50;5035707;28;20048;-73
2022/09/04 00:38:32;;;;;;;23.17;12.80;;;;;;;12.97;100.00;96612.56;5034672;28;20046;-73
2022/09/04 00:41:10;;;;;;;27.23;13.98;;;;;;;12.98;100.00;96619.56;5036140;28;20377;-72
2022/09/04 00:43:57;;;;;;;31.45;14.85;;;;;;;12.96;100.00;96613.66;5034630;28;20040;-73
2022/09/04 00:46:50;;;;;;;27.30;15.82;;;;;;;12.94;100.00;96618.47;5035934;28;20061;-74
2022/09/04 00:49:40;;;;;;;29.55;17.23;;;;;;;12.97;100.00;96630.56;5034100;28;20076;-73
2022/09/04 00:52:24;;;;;;;35.55;17.92;;;;;;;12.98;100.00;96613.38;5036607;28;20033;-73
2022/09/04 00:55:27;;;;;;;31.48;17.60;;;;;;;12.98;100.00;96626.81;5036622;28;20051;-74
2022/09/04 00:58:20;;;;;;;36.58;17.85;;;;;;;13.00;100.00;96620.13;5031425;28;20048;-72
2022/09/04 01:00:46;;;;;;;31.85;18.02;;;;;;;13.00;100.00;96622.00;5021281;28;20044;-73
2022/09/04 01:03:42;;;;;;;30.50;17.02;;;;;;;13.10;100.00;96624.75;5031481;28;20108;-74
2022/09/04 01:06:21;;;;;;;27.10;14.50;;;;;;;13.27;100.00;96620.03;5033691;28;20056;-73
2022/09/04 01:09:34;;;;;;;29.50;15.57;;;;;;;13.18;100.00;96623.44;5031533;28;20352;-73
2022/09/04 01:12:28;;;;;;;30.70;15.85;;;;;;;13.08;100.00;96635.75;5007751;28;20095;-73
2022/09/04 01:15:17;;;;;;;32.42;15.60;;;;;;;13.16;100.00;96642.53;5035850;28;20505;-73
2022/09/04 01:18:11;;;;;;;31.77;16.17;;;;;;;13.22;100.00;96636.13;5031882;28;20059;-74
2022/09/04 01:20:44;;;;;;;32.88;15.95;;;;;;;13.31;100.00;96639.16;5020854;28;20064;-73
2022/09/04 01:23:28;;;;;;;34.25;16.92;;;;;;;13.35;100.00;96632.97;5032021;28;20529;-72
2022/09/04 01:26:07;;;;;;;36.08;18.33;;;;;;;13.47;100.00;96631.97;5033807;28;20071;-74
2022/09/04 01:29:11;;;;;;;38.65;18.15;;;;;;;13.50;100.00;96631.44;5033507;28;20040;-73
2022/09/04 01:31:57;;;;;;;40.17;17.63;;;;;;;13.55;100.00;96637.66;5033668;28;20490;-73
2022/09/04 01:34:44;;;;;;;40.70;20.10;;;;;;;13.57;100.00;96635.50;5031973;28;20049;-74
2022/09/04 01:37:42;;;;;;;44.03;17.73;;;;;;;13.59;100.00;96632.53;5032413;28;20045;-73
2022/09/04 01:40:08;;;;;;;41.30;18.17;;;;;;;13.52;100.00;96638.16;5032766;28;20045;-73
2022/09/04 01:42:49;;;;;;;37.58;16.55;;;;;;;13.56;100.00;96625.00;5034226;28;20060;-73
2022/09/04 01:45:28;;;;;;;34.47;14.75;;;;;;;13.62;100.00;96630.16;5033303;28;20110;-73
2022/09/04 01:48:00;;;;;;;34.25;15.38;;;;;;;13.71;100.00;96626.94;5033739;28;20040;-73
2022/09/04 01:50:26;;;;;;;;;;;;;;;13.47;100.00;96627.41;5030231;28;20045;-73
2022/09/04 01:53:09;;;;;;;32.60;14.75;;;;;;;13.40;100.00;96629.50;5033635;28;19960;-72
2022/09/04 01:55:57;;;;;;;30.02;14.63;;;;;;;13.53;100.00;96631.69;5034273;28;20566;-73
2022/09/04 01:58:47;;;;;;;28.75;15.10;;;;;;;13.41;100.00;96639.19;5028828;28;20391;-73
2022/09/04 02:01:30;;;;;;;29.42;14.40;;;;;;;13.23;100.00;96626.19;5031785;28;20567;-73
2022/09/04 02:04:11;;;;;;;26.40;13.00;;;;;;;13.15;100.00;96627.47;5023905;28;20098;-72
2022/09/04 02:06:54;;;;;;;24.95;12.02;;;;;;;13.11;100.00;96629.84;5020707;28;20063;-73
2022/09/04 02:09:47;;;;;;;21.90;10.15;;;;;;;13.24;100.00;96639.38;5034749;28;20431;-73
2022/09/04 02:12:34;;;;;;;22.52;11.00;;;;;;;13.23;100.00;96637.75;5030156;28;20048;-72
2022/09/04 02:15:16;;;;;;;24.02;9.93;;;;;;;13.21;100.00;96633.69;5032464;28;20045;-73
2022/09/04 02:17:52;;;;;;;22.63;10.75;;;;;;;13.29;100.00;96639.38;5032881;28;20717;-73
2022/09/04 02:20:24;;;;;;;23.23;10.50;;;;;;;13.42;100.00;96645.38;5030376;28;20139;-72
2022/09/04 02:22:55;;;;;;;24.50;10.48;;;;;;;13.33;100.00;96642.38;5032638;28;20068;-74
2022/09/04 02:25:43;;;;;;;38.00;11.30;;;;;;;13.17;100.00;96644.13;5031179;28;20040;-74
2022/09/04 02:28:39;;;;;;;20.05;10.45;;;;;;;13.04;100.00;96645.41;5033300;28;20047;-72
2022/09/04 02:31:47;;;;;;;21.52;9.35;;;;;;;13.21;100.00;96656.00;5031508;28;20056;-73
2022/09/04 02:34:32;;;;;;;20.98;8.60;;;;;;;13.25;100.00;96642.88;5034044;28;20049;-73
2022/09/04 02:37:09;;;;;;;14.80;7.88;;;;;;;13.43;100.00;96645.09;5029542;28;20048;-73
2022/09/04 02:40:02;;;;;;;15.25;8.13;;;;;;;13.37;100.00;96646.94;5022495;28;20047;-74
2022/09/04 02:42:46;;;;;;;15.40;8.35;;;;;;;13.30;100.00;96653.63;5031256;28;20044;-73
2022/09/04 02:45:24;;;;;;;15.38;8.27;;;;;;;13.13;100.00;96648.41;5022028;28;20552;-72
2022/09/04 02:48:13;;;;;;;15.25;8.48;;;;;;;13.04;100.00;96650.78;5031523;28;20554;-72
2022/09/04 02:51:01;;;;;;;16.60;7.70;;;;;;;12.93;100.00;96657.16;5030636;28;20053;-73
2022/09/04 02:53:57;;;;;;;15.13;7.18;;;;;;;12.85;100.00;96665.69;5018935;28;20045;-72
2022/09/04 02:56:47;;;;;;;16.55;7.43;;;;;;;12.82;100.00;96672.38;5032260;28;20180;-74
2022/09/04 02:59:27;;;;;;;15.95;7.70;;;;;;;12.69;100.00;96669.34;5033757;28;20629;-72
2022/09/04 03:02:00;;;;;;;12.20;7.07;;;;;;;12.66;100.00;96667.94;5034039;28;20061;-72
2022/09/04 03:04:48;;;;;;;18.33;9.13;;;;;;;12.56;100.00;96667.88;5023531;28;20442;-73
2022/09/04 03:07:26;;;;;;;15.82;7.50;;;;;;;12.48;100.00;96669.16;5032809;28;20041;-72
2022/09/04 03:10:03;;;;;;;13.80;7.20;;;;;;;12.59;100.00;96671.91;5033074;28;20041;-73
2022/09/04 03:12:46;;;;;;;14.35;7.43;;;;;;;12.52;100.00;96683.66;5032496;28;20084;-73
2022/09/04 03:15:22;;;;;;;10.68;6.00;;;;;;;12.52;100.00;96680.16;5033828;28;20522;-72
2022/09/04 03:18:16;;;;;;;13.98;6.78;;;;;;;12.59;100.00;96682.66;5031425;28;20037;-72
2022/09/04 03:21:16;;;;;;;14.98;7.50;;;;;;;12.77;100.00;96690.34;5031366;28;20052;-73
2022/09/04 03:23:53;;;;;;;16.90;8.32;;;;;;;12.99;100.00;96691.00;5028416;28;20049;-73
2022/09/04 03:26:26;;;;;;;12.55;6.75;;;;;;;13.00;100.00;96692.66;5032604;28;20041;-73
2022/09/04 03:29:23;;;;;;;15.90;7.88;;;;;;;12.92;100.00;96685.09;5033493;28;20120;-72
2022/09/04 03:32:09;;;;;;;15.82;8.32;;;;;;;12.88;100.00;96692.03;5008117;28;20073;-73
2022/09/04 03:34:51;;;;;;;21.10;8.77;;;;;;;12.92;100.00;96693.16;5034237;28;20123;-73
2022/09/04 03:37:22;;;;;;;20.83;8.30;;;;;;;13.04;100.00;96695.63;5030013;28;20186;-72
2022/09/04 03:40:06;;;;;;;26.23;10.15;;;;;;;13.28;100.00;96688.03;5037093;28;20051;-72
2022/09/04 03:42:56;;;;;;;22.27;10.18;;;;;;;13.45;100.00;96696.72;5034023;28;20116;-73
2022/09/04 03:45:53;;;;;;;27.95;10.48;;;;;;;13.50;100.00;96687.88;5023845;28;20036;-73
2022/09/04 03:48:47;;;;;;;33.28;11.15;;;;;;;13.63;100.00;96682.03;5031901;28;20604;-73
2022/09/04 03:51:34;;;;;;;30.67;12.48;;;;;;;13.40;100.00;96680.56;5032740;28;20037;-72
2022/09/04 03:54:12;;;;;;;29.10;11.07;;;;;;;13.26;100.00;96688.28;5033399;28;20114;-73
2022/09/04 03:57:10;;;;;;;29.80;10.90;;;;;;;13.53;100.00;96682.78;5034799;28;20044;-72
2022/09/04 04:00:16;;;;;;;30.35;11.55;;;;;;;13.49;100.00;96687.06;5037527;28;20064;-73
2022/09/04 04:03:10;;;;;;;36.95;13.60;;;;;;;13.53;100.00;96695.41;5030486;28;20068;-73
2022/09/04 04:05:39;;;;;;;31.42;12.43;;;;;;;13.42;100.00;96699.94;5036471;28;20040;-74
2022/09/04 04:08:19;;;;;;;37.80;11.75;;;;;;;13.38;100.00;96691.59;5032658;28;20439;-73
2022/09/04 04:11:00;;;;;;;32.67;12.82;;;;;;;13.45;100.00;96693.22;5023291;28;20492;-73
2022/09/04 04:14:07;;;;;;;50.03;14.50;;;;;;;13.50;100.00;96698.63;5033324;28;20094;-72
2022/09/04 04:16:51;;;;;;;35.67;13.45;;;;;;;13.48;100.00;96695.41;5035849;28;20067;-72
2022/09/04 04:19:20;;;;;;;33.83;12.68;;;;;;;13.30;100.00;96702.81;5036255;28;20064;-73
2022/09/04 04:22:12;;;;;;;30.33;12.05;;;;;;;13.26;100.00;96703.59;5021324;28;20495;-73
2022/09/04 04:24:47;;;;;;;33.00;12.52;;;;;;;13.25;100.00;96707.38;5033438;28;20045;-72
2022/09/04 04:27:44;;;;;;;32.97;13.10;;;;;;;13.25;100.00;96707.38;5035144;28;20041;-72
2022/09/04 04:30:15;;;;;;;29.85;13.07;;;;;;;13.45;100.00;96714.72;5034297;28;20045;-73
2022/09/04 04:32:59;;;;;;;35.08;12.27;;;;;;;13.45;100.00;96709.34;5034394;28;20107;-73
2022/09/04 04:36:04;;;;;;;27.83;12.77;;;;;;;13.41;100.00;96716.31;5034159;28;20144;-73
2022/09/04 04:38:49;;;;;;;28.88;12.13;;;;;;;13.36;100.00;96712.53;4983580;28;20049;-73
2022/09/04 04:42:05;;;;;;;27.02;12.00;;;;;;;13.41;100.00;96709.06;5030728;28;20771;-73
2022/09/04 04:47:36;;;;;;;24.10;10.63;;;;;;;13.21;100.00;96715.13;5032471;28;20040;-73
2022/09/04 04:50:21;;;;;;;22.50;11.23;;;;;;;13.16;100.00;96706.19;5034462;28;20033;-73
2022/09/04 04:53:01;;;;;;;23.10;11.00;;;;;;;13.10;100.00;96710.72;5035388;28;20132;-73
2022/09/04 04:55:49;;;;;;;20.70;9.82;;;;;;;13.11;100.00;96717.72;5033677;28;20811;-73
2022/09/04 04:58:20;;;;;;;20.92;9.95;;;;;;;13.08;100.00;96720.94;5032657;28;20641;-73
2022/09/04 05:00:54;;;;;;;;;;;;;;;13.09;100.00;96722.53;5036038;28;20043;-73
2022/09/04 05:03:26;;;;;;;27.67;8.70;;;;;;;13.22;100.00;96724.78;5032185;28;19921;-73
2022/09/04 05:06:01;;;;;;;19.80;9.05;;;;;;;13.19;100.00;96727.97;5037562;28;20569;-74
2022/09/04 05:09:01;;;;;;;23.92;8.50;;;;;;;13.09;100.00;96738.66;5020621;28;20494;-73
2022/09/04 05:11:52;;;;;;;17.20;8.43;;;;;;;12.98;100.00;96735.06;5030339;28;20045;-73
2022/09/04 05:14:36;;;;;;;17.85;7.97;;;;;;;13.01;100.00;96745.31;5035837;28;20282;-73
2022/09/04 05:17:34;;;;;;;14.68;7.60;;;;;;;13.02;100.00;96752.31;5030982;28;20547;-74
2022/09/04 05:20:24;;;;;;;15.73;8.15;;;;;;;13.11;100.00;96764.19;5033108;28;20052;-73
2022/09/04 05:23:05;;;;;;;17.77;8.32;;;;;;;13.19;100.00;96767.47;5033887;28;20041;-73
2022/09/04 05:25:59;;;;;;;15.43;8.43;;;;;;;13.32;100.00;96767.06;5036351;28;20086;-73
2022/09/04 05:28:38;;;;;;;14.80;8.27;;;;;;;13.47;100.00;96767.19;5041506;28;20072;-73
2022/09/04 05:31:21;;;;;;;25.88;7.57;;;;;;;13.58;100.00;96766.16;5031109;28;20036;-74
2022/09/04 05:34:08;;;;;;;11.00;6.63;;;;;;;13.67;100.00;96769.16;5032251;28;20537;-73
2022/09/04 05:37:23;;;;;;;11.13;6.72;;;;;;;13.82;100.00;96766.56;5031285;28;20048;-73
2022/09/04 05:40:11;;;;;;;10.40;6.43;;;;;;;13.96;100.00;96774.97;4977720;28;20515;-74
2022/09/04 05:42:41;;;;;;;11.20;5.65;;;;;;;14.12;100.00;96773.97;5031795;28;20682;-74
2022/09/04 05:45:28;;;;;;;10.35;6.47;;;;;;;14.22;100.00;96774.00;5022779;28;20048;-73
2022/09/04 05:48:18;;;;;;;9.55;6.18;;;;;;;14.26;100.00;96778.88;5034406;28;20044;-72
2022/09/04 05:50:47;;;;;;;8.52;5.35;;;;;;;14.22;100.00;96779.38;5034592;28;20045;-73
2022/09/04 05:53:31;;;;;;;9.05;6.03;;;;;;;14.20;100.00;96786.91;5034386;28;20472;-72
2022/09/04 05:56:31;;;;;;;10.50;5.93;;;;;;;14.21;100.00;96793.91;5034598;28;20326;-74
2022/09/04 05:59:15;;;;;;;12.18;6.53;;;;;;;14.22;100.00;96806.28;5033847;28;20036;-73
2022/09/04 06:02:16;;;;;;;11.27;6.40;;;;;;;14.21;100.00;96796.59;5034688;28;20224;-73
2022/09/04 06:05:11;;;;;;;12.95;6.60;;;;;;;14.31;100.00;96795.00;5034299;28;20405;-73
2022/09/04 06:07:43;;;;;;;11.40;6.63;;;;;;;14.46;100.00;96800.47;5033006;28;20037;-74
2022/09/04 06:10:17;;;;;;;;;;;;;;;14.57;100.00;96798.66;5034862;28;20340;-74
2022/09/04 06:13:04;;;;;;;10.57;6.45;;;;;;;14.66;100.00;96802.44;5032570;28;19960;-74
2022/09/04 06:15:52;;;;;;;10.75;6.35;;;;;;;14.71;100.00;96800.56;5036784;28;20068;-74
2022/09/04 06:18:25;;;;;;;9.85;6.15;;;;;;;14.84;100.00;96806.50;5031919;28;20281;-74
2022/09/04 06:20:57;;;;;;;9.43;6.10;;;;;;;14.94;100.00;96798.44;5033820;28;20053;-74
2022/09/04 06:23:34;;;;;;;12.43;6.82;;;;;;;14.92;100.00;96800.59;5035673;28;20044;-75
2022/09/04 06:26:38;;;;;;;9.65;6.50;;;;;;;15.15;100.00;96802.75;5035556;28;20527;-74
2022/09/04 06:29:25;;;;;;;10.30;6.10;;;;;;;15.17;100.00;96806.00;5033637;28;20177;-75
2022/09/04 06:32:24;;;;;;;11.13;6.10;;;;;;;15.17;100.00;96808.69;5033672;28;20052;-74
2022/09/04 06:35:10;;;;;;;9.90;6.13;;;;;;;15.08;100.00;96821.09;5038130;28;20255;-74
2022/09/04 06:37:50;;;;;;;9.18;5.72;;;;;;;15.01;100.00;96826.72;5037581;28;20088;-75
2022/09/04 06:40:28;;;;;;;9.73;5.70;;;;;;;15.06;100.00;96825.94;5033045;28;20501;-75
2022/09/04 06:43:14;;;;;;;9.05;5.60;;;;;;;15.18;100.00;96823.00;5029621;28;20153;-73
2022/09/04 06:45:50;;;;;;;8.98;6.03;;;;;;;15.28;100.00;96829.19;5037386;28;20075;-74
2022/09/04 06:48:26;;;;;;;11.52;7.07;;;;;;;15.45;100.00;96828.09;5030860;28;20251;-75
2022/09/04 06:51:27;;;;;;;12.63;6.88;;;;;;;15.40;100.00;96825.41;5031718;28;20045;-74
2022/09/04 06:54:34;;;;;;;13.85;7.70;;;;;;;15.32;100.00;96824.06;5032986;28;20076;-75
2022/09/04 06:57:18;;;;;;;11.65;6.60;;;;;;;15.27;100.00;96832.97;5029674;28;20044;-73
2022/09/04 07:00:07;;;;;;;13.00;7.38;;;;;;;15.35;100.00;96834.31;5031938;28;20282;-74
2022/09/04 07:02:47;;;;;;;11.65;6.70;;;;;;;15.59;100.00;96834.59;5002476;28;20041;-73
2022/09/04 07:05:19;;;;;;;13.00;6.33;;;;;;;15.54;100.00;96826.47;5031475;28;20045;-73
2022/09/04 07:08:26;;;;;;;11.68;6.93;;;;;;;15.44;100.00;96845.38;4840061;28;10000509;-73
2022/09/04 07:10:58;;;;;;;16.42;7.32;;;;;;;15.50;100.00;96849.69;5035602;28;20728;-73
2022/09/04 07:13:35;;;;;;;11.65;7.00;;;;;;;15.58;100.00;96855.34;5031718;28;20090;-74
2022/09/04 07:16:29;;;;;;;10.38;6.57;;;;;;;15.61;100.00;96854.03;5034622;28;20550;-73
2022/09/04 07:19:27;;;;;;;9.40;6.47;;;;;;;15.80;100.00;96857.81;5035160;28;20476;-73
2022/09/04 07:22:02;;;;;;;11.40;7.30;;;;;;;16.03;100.00;96861.81;5033753;28;20067;-73
2022/09/04 07:25:02;;;;;;;10.93;6.88;;;;;;;15.89;100.00;96860.75;5024563;28;20041;-74
2022/09/04 07:27:42;;;;;;;14.07;6.32;;;;;;;15.97;100.00;96862.09;5034463;28;20051;-73
2022/09/04 07:30:10;;;;;;;11.13;6.78;;;;;;;16.15;100.00;96858.78;5035376;28;20455;-73
2022/09/04 07:32:48;;;;;;;11.63;6.63;;;;;;;16.21;100.00;96863.09;5035258;28;20073;-73
2022/09/04 07:35:38;;;;;;;11.27;6.85;;;;;;;16.16;100.00;96855.00;5037494;28;20129;-73
2022/09/04 07:38:25;;;;;;;13.32;6.53;;;;;;;16.14;100.00;96858.00;5036580;28;20184;-73
2022/09/04 07:41:15;;;;;;;16.70;6.82;;;;;;;15.98;100.00;96864.50;5039731;28;20045;-72
2022/09/04 07:43:53;;;;;;;10.82;6.22;;;;;;;15.90;100.00;96862.38;5039866;28;20037;-72
2022/09/04 07:46:32;;;;;;;9.27;6.75;;;;;;;15.79;100.00;96866.94;5022017;28;20435;-72
2022/09/04 07:49:22;;;;;;;13.63;5.97;;;;;;;15.79;100.00;96874.22;5037938;28;20254;-73
2022/09/04 07:51:48;;;;;;;16.53;7.37;;;;;;;16.01;100.00;96871.25;5034988;28;20084;-73
2022/09/04 07:54:46;;;;;;;11.48;7.10;;;;;;;16.05;100.00;96873.13;5036584;28;20508;-72
2022/09/04 07:57:27;;;;;;;11.98;6.20;;;;;;;16.12;100.00;96880.94;5050733;28;20483;-73
2022/09/04 08:00:08;;;;;;;11.38;6.45;;;;;;;16.29;100.00;96884.16;5025438;28;20037;-73
2022/09/04 08:03:04;;;;;;;13.23;6.93;;;;;;;16.20;100.00;96888.50;5035514;28;20483;-72
2022/09/04 08:05:40;;;;;;;13.05;7.70;;;;;;;16.50;100.00;96889.47;5037522;28;20419;-73
2022/09/04 08:08:35;;;;;;;13.82;6.57;;;;;;;16.43;100.00;96890.59;5036420;28;20033;-72
2022/09/04 08:11:38;;;;;;;11.20;6.80;;;;;;;16.56;100.00;96899.16;5025201;28;20128;-73
2022/09/04 08:14:12;;;;;;;10.50;6.53;;;;;;;16.94;100.00;96884.97;5036351;28;20465;-74
2022/09/04 08:17:19;;;;;;;11.05;6.50;;;;;;;16.95;100.00;96892.00;5034898;28;20048;-75
2022/09/04 08:20:01;;;;;;;12.90;6.70;;;;;;;17.04;100.00;96896.81;5037600;28;20051;-75
2022/09/04 08:22:36;;;;;;;10.02;6.97;;;;;;;17.03;100.00;96903.31;5036323;28;20036;-73
2022/09/04 08:25:15;;;;;;;12.75;7.35;;;;;;;16.83;100.00;96902.34;5037713;28;20044;-74
2022/09/04 08:28:07;;;;;;;14.57;7.85;;;;;;;16.67;100.00;96906.97;5034596;28;20286;-74
2022/09/04 08:30:48;;;;;;;;;;;;;;;16.92;100.00;96911.50;5021876;28;20086;-73
2022/09/04 08:33:22;;;;;;;;;;;;;;;17.48;100.00;96908.44;5034248;28;19967;-74
2022/09/04 08:36:12;;;;;;;11.32;7.07;;;;;;;17.26;100.00;96911.56;5034116;28;19982;-74
2022/09/04 08:39:14;;;;;;;9.18;6.28;;;;;;;17.50;100.00;96916.28;5037566;28;20086;-74
2022/09/04 08:41:49;;;;;;;10.93;6.28;;;;;;;17.33;100.00;96911.25;5018382;28;20709;-74
2022/09/04 08:44:23;;;;;;;10.38;7.45;;;;;;;17.72;100.00;96924.00;5038270;28;20033;-73
2022/09/04 08:47:03;;;;;;;13.50;6.88;;;;;;;18.00;100.00;96915.09;5035204;28;20046;-73
2022/09/04 08:49:41;;;;;;;12.77;7.15;;;;;;;17.92;100.00;96917.63;5038692;28;20044;-73
2022/09/04 08:52:26;;;;;;;11.60;7.20;;;;;;;17.72;100.00;96915.88;5034903;28;20044;-73
2022/09/04 08:55:13;;;;;;;12.80;7.50;;;;;;;18.10;100.00;96912.28;5027406;28;20083;-74
2022/09/04 08:57:47;;;;;;;13.05;7.88;;;;;;;18.34;100.00;96908.81;5035838;28;20044;-74
2022/09/04 09:00:14;;;;;;;10.98;6.97;;;;;;;18.49;100.00;96911.34;5035903;28;20435;-74
2022/09/04 09:03:11;;;;;;;10.80;6.70;;;;;;;18.26;100.00;96909.44;5035489;28;20355;-73
2022/09/04 09:06:05;;;;;;;11.00;6.90;;;;;;;18.34;100.00;96909.59;5037547;28;20372;-73
2022/09/04 09:09:11;;;;;;;10.90;5.93;;;;;;;18.34;100.00;96908.81;5032538;28;20071;-74
2022/09/04 09:12:14;;;;;;;10.70;6.35;;;;;;;18.45;100.00;96910.31;5036654;28;20492;-73
2022/09/04 09:15:03;;;;;;;12.20;7.22;;;;;;;18.36;100.00;96906.59;5034926;28;20037;-74
2022/09/04 09:17:43;;;;;;;8.30;5.45;;;;;;;18.14;100.00;96906.31;5037383;28;20709;-73
2022/09/04 09:20:46;;;;;;;10.80;6.93;;;;;;;18.72;100.00;96911.66;5034667;28;20033;-73
2022/09/04 09:23:18;;;;;;;12.55;7.40;;;;;;;18.62;100.00;96899.81;5037464;28;20116;-74
2022/09/04 09:26:09;;;;;;;12.38;7.13;;;;;;;18.79;100.00;96912.13;5036154;28;20393;-73
2022/09/04 09:29:02;;;;;;;11.67;6.53;;;;;;;19.14;100.00;96905.41;5035280;28;20041;-74
2022/09/04 09:32:05;;;;;;;11.38;7.50;;;;;;;18.87;100.00;96900.63;5007584;28;20818;-73
2022/09/04 09:34:56;;;;;;;14.05;6.70;;;;;;;19.05;100.00;96902.56;5035400;28;20064;-73
2022/09/04 09:37:48;;;;;;;10.70;6.17;;;;;;;19.06;100.00;96904.16;5035044;28;20083;-74
2022/09/04 09:40:37;;;;;;;8.85;6.15;;;;;;;19.25;100.00;96895.25;5033889;28;20106;-73
2022/09/04 09:43:14;;;;;;;9.10;6.05;;;;;;;19.41;100.00;96908.31;5017952;28;20040;-74
2022/09/04 09:46:07;;;;;;;8.02;5.78;;;;;;;19.19;100.00;96908.88;5037415;28;20381;-74
2022/09/04 09:48:54;;;;;;;10.38;5.82;;;;;;;19.13;100.00;96909.22;5037450;28;20372;-74
2022/09/04 09:51:49;;;;;;;12.13;6.22;;;;;;;19.06;100.00;96904.16;5039003;28;20052;-74
2022/09/04 09:54:30;;;;;;;13.20;6.63;;;;;;;19.17;100.00;96910.28;5035830;28;20036;-74
2022/09/04 09:57:23;;;;;;;10.32;6.25;;;;;;;19.19;100.00;96892.59;5033523;28;20053;-74
2022/09/04 10:00:16;;;;;;;15.05;6.32;;;;;;;19.48;100.00;96900.59;5034826;28;20430;-73
2022/09/04 10:02:42;;;;;;;9.32;6.30;;;;;;;19.26;100.00;96903.09;5032346;28;20343;-73
2022/09/04 10:05:17;;;;;;;9.23;6.13;;;;;;;19.48;100.00;96902.50;5033104;28;20581;-74
2022/09/04 10:08:00;;;;;;;9.63;6.40;;;;;;;19.60;100.00;96908.31;5035545;28;20104;-73
2022/09/04 10:10:35;;;;;;;10.07;6.32;;;;;;;19.95;100.00;96904.22;5035695;28;20037;-74
2022/09/04 10:13:22;;;;;;;10.63;6.45;;;;;;;20.05;100.00;96900.50;5035781;28;20287;-73
2022/09/04 10:16:00;;;;;;;9.63;6.30;;;;;;;20.54;100.00;96899.09;5034334;28;20033;-74
2022/09/04 10:18:46;;;;;;;10.18;6.18;;;;;;;20.35;100.00;96904.59;5033178;28;20041;-74
2022/09/04 10:21:49;;;;;;;9.90;6.15;;;;;;;20.88;100.00;96892.44;5037790;28;20189;-73
2022/09/04 10:24:36;;;;;;;9.07;5.78;;;;;;;21.52;100.00;96891.31;5038258;28;20594;-74
2022/09/04 10:27:27;;;;;;;8.55;5.30;;;;;;;22.16;100.00;96897.38;5036309;28;20115;-73
2022/09/04 10:30:04;;;;;;;9.48;5.30;;;;;;;22.14;100.00;96898.81;5038049;28;20056;-74
2022/09/04 10:32:41;;;;;;;8.23;4.57;;;;;;;22.17;100.00;96898.97;5034897;28;20481;-74
2022/09/04 10:35:20;;;;;;;7.35;4.50;;;;;;;23.08;100.00;96890.22;5035147;28;20057;-73
2022/09/04 10:38:08;;;;;;;8.20;4.28;;;;;;;24.05;100.00;96900.06;5016131;28;20033;-74
2022/09/04 10:40:44;;;;;;;6.45;4.07;;;;;;;25.57;100.00;96885.47;5037555;28;20040;-74
2022/09/04 10:43:22;;;;;;;7.47;3.53;;;;;;;27.32;94.44;96875.78;5033909;28;20047;-74
2022/09/04 10:46:15;;;;;;;6.65;4.22;;;;;;;28.67;85.63;96873.22;5036832;28;20048;-75
2022/09/04 10:48:52;;;;;;;11.05;4.40;;;;;;;28.58;78.42;96870.63;5028182;28;20311;-74
2022/09/04 10:51:26;;;;;;;6.55;3.72;;;;;;;29.84;72.75;96863.25;5033947;28;20056;-74
2022/09/04 10:54:06;;;;;;;6.40;4.03;;;;;;;29.50;76.26;96865.72;5037198;28;20280;-74
2022/09/04 10:56:37;;;;;;;5.97;3.80;;;;;;;31.82;54.71;96864.13;5038905;28;20044;-74
2022/09/04 10:59:25;;;;;;;6.75;3.40;;;;;;;32.98;45.70;96855.38;5040526;28;20103;-74
2022/09/04 11:02:09;;;;;;;4.70;2.90;;;;;;;34.17;37.89;96859.56;5036297;28;20155;-74
2022/09/04 11:04:58;;;;;;;3.90;2.28;;;;;;;35.77;33.58;96855.91;5041380;28;20064;-74
2022/09/04 11:08:01;;;;;;;3.72;2.38;;;;;;;36.47;32.77;96856.75;5038409;28;20037;-75
2022/09/04 11:10:50;;;;;;;5.30;2.53;;;;;;;37.89;30.85;96855.41;5038173;28;20045;-75
2022/09/04 11:13:21;;;;;;;5.75;2.22;;;;;;;38.84;29.53;96851.69;5037054;28;20535;-75
2022/09/04 11:16:09;;;;;;;8.85;2.30;;;;;;;38.34;28.65;96852.44;5040183;28;20533;-75
2022/09/04 11:18:52;;;;;;;4.38;2.15;;;;;;;37.11;32.69;96850.66;5036976;28;20762;-75
2022/09/04 11:21:39;;;;;;;5.47;2.28;;;;;;;36.48;32.34;96852.78;5038324;28;20040;-74
2022/09/04 11:24:32;;;;;;;3.75;2.00;;;;;;;35.73;33.80;96851.16;5039890;28;20617;-75
2022/09/04 11:27:51;;;;;;;4.80;1.95;;;;;;;38.20;30.05;96847.00;5036292;28;20448;-75
2022/09/04 11:30:27;;;;;;;4.47;1.92;;;;;;;40.47;27.21;96846.09;5002593;28;20100;-75
2022/09/04 11:33:32;;;;;;;6.90;2.00;;;;;;;41.57;25.24;96843.28;5029564;28;20356;-75
2022/09/04 11:36:18;;;;;;;6.47;2.08;;;;;;;43.14;23.89;96844.09;5037768;28;20357;-75
2022/09/04 11:39:06;;;;;;;4.65;2.20;;;;;;;42.39;25.29;96852.13;5038539;28;20063;-75
2022/09/04 11:41:56;;;;;;;6.03;1.65;;;;;;;43.19;24.98;96854.75;5039649;28;20048;-75
2022/09/04 11:44:45;;;;;;;3.20;1.80;;;;;;;43.98;22.31;96849.94;5029380;28;20049;-76
2022/09/04 11:47:28;;;;;;;3.25;1.55;;;;;;;42.64;21.61;96856.97;5051857;28;20390;-76
2022/09/04 11:50:16;;;;;;;6.13;1.50;;;;;;;39.36;25.24;96853.97;5037713;28;20404;-75
2022/09/04 11:53:21;;;;;;;6.20;1.60;;;;;;;35.42;30.58;96877.13;5036010;28;20572;-75
2022/09/04 11:56:14;;;;;;;6.90;1.67;;;;;;;40.09;24.98;96861.34;5036303;28;20459;-75
2022/09/04 11:59:05;;;;;;;3.03;1.58;;;;;;;40.38;24.68;96855.84;5039721;28;20053;-75
2022/09/04 12:01:40;;;;;;;3.97;2.00;;;;;;;43.43;23.42;96865.59;5040750;28;20083;-75
2022/09/04 12:04:32;;;;;;;3.63;1.90;;;;;;;45.12;20.50;96861.53;5034388;28;20045;-77
2022/09/04 12:07:14;;;;;;;3.90;2.00;;;;;;;43.65;21.62;96872.84;5037320;28;20033;-75
2022/09/04 12:09:43;;;;;;;3.63;1.95;;;;;;;42.05;24.21;96869.63;5038291;28;20431;-76
2022/09/04 12:12:25;;;;;;;3.80;2.00;;;;;;;43.64;22.51;96873.28;5026709;28;20040;-75
2022/09/04 12:15:06;;;;;;;8.35;1.80;;;;;;;41.52;22.31;96860.66;5037383;28;20376;-76
2022/09/04 12:17:50;;;;;;;4.07;1.70;;;;;;;43.19;21.68;96868.81;5039446;28;20114;-75
2022/09/04 12:20:37;;;;;;;6.53;1.83;;;;;;;41.90;22.57;96862.84;5037450;28;20064;-75
2022/09/04 12:23:34;;;;;;;8.05;1.70;;;;;;;44.08;20.78;96862.03;5038460;28;20090;-76
2022/09/04 12:26:00;;;;;;;3.65;1.60;;;;;;;46.34;20.32;96857.69;5037430;28;20296;-76
2022/09/04 12:28:32;;;;;;;4.53;1.80;;;;;;;46.24;19.22;96854.13;5035908;28;20043;-76
2022/09/04 12:31:07;;;;;;;5.20;2.20;;;;;;;47.32;18.53;96855.28;5036497;28;20245;-76
2022/09/04 12:33:51;;;;;;;4.60;2.08;;;;;;;47.35;18.07;96854.34;5034286;28;20029;-76
2022/09/04 12:37:00;;;;;;;8.02;1.80;;;;;;;47.27;16.90;96853.16;5026605;28;20041;-76
2022/09/04 12:39:54;;;;;;;6.07;1.67;;;;;;;45.90;18.12;96863.75;5037069;28;20106;-76
2022/09/04 12:42:32;;;;;;;4.68;1.63;;;;;;;44.34;20.03;96852.16;5037773;28;20040;-76
2022/09/04 12:45:23;;;;;;;5.45;1.52;;;;;;;44.35;19.54;96853.72;5038525;28;20658;-76
2022/09/04 12:48:08;;;;;;;3.55;1.40;;;;;;;45.54;18.63;96851.22;5035186;28;20047;-76